createdAt,value
2022-12-09T00:00:09.244Z,11.57
2022-12-09T00:02:56.369Z,13.00
2022-12-09T00:05:43.276Z,11.73
2022-12-09T00:08:32.435Z,10.90
2022-12-09T00:11:19.793Z,11.47
2022-12-09T00:14:06.480Z,12.13
2022-12-09T00:16:53.487Z,12.07
2022-12-09T00:19:40.567Z,11.90
2022-12-09T00:22:28.320Z,10.63
2022-12-09T00:25:16.228Z,11.50
2022-12-09T00:28:02.915Z,11.93
2022-12-09T00:30:49.598Z,8.53
2022-12-09T00:33:37.164Z,12.90
2022-12-09T00:36:25.204Z,10.93
2022-12-09T00:39:13.276Z,10.77
2022-12-09T00:42:01.631Z,12.37
2022-12-09T00:44:48.291Z,13.40
2022-12-09T00:47:34.997Z,11.60
2022-12-09T00:50:21.714Z,12.47
2022-12-09T00:53:08.192Z,15.17
2022-12-09T00:55:54.673Z,14.70
2022-12-09T00:58:42.537Z,12.00
2022-12-09T01:01:30.203Z,11.77
2022-12-09T01:04:18.223Z,13.63
2022-12-09T01:07:04.971Z,13.07
2022-12-09T01:09:52.076Z,12.53
2022-12-09T01:12:39.092Z,11.93
2022-12-09T01:15:26.904Z,13.73
2022-12-09T01:18:15.452Z,15.43
2022-12-09T01:21:02.002Z,12.30
2022-12-09T01:23:48.799Z,12.43
2022-12-09T01:26:35.683Z,15.67
2022-12-09T01:29:22.716Z,13.63
2022-12-09T01:32:10.802Z,14.23
2022-12-09T01:34:57.529Z,21.97
2022-12-09T01:37:44.460Z,13.40
2022-12-09T01:40:31.533Z,14.57
2022-12-09T01:43:19.288Z,14.97
2022-12-09T01:46:06.492Z,16.73
2022-12-09T01:48:54.698Z,16.33
2022-12-09T01:51:43.971Z,16.37
2022-12-09T01:54:31.445Z,17.87
2022-12-09T01:57:18.745Z,15.63
2022-12-09T02:00:07.488Z,15.53
2022-12-09T02:02:57.380Z,17.13
2022-12-09T02:05:46.343Z,14.90
2022-12-09T02:08:32.793Z,14.67
2022-12-09T02:11:26.584Z,16.17
2022-12-09T02:14:19.189Z,15.13
2022-12-09T02:17:25.060Z,15.90
2022-12-09T02:20:19.915Z,15.93
2022-12-09T02:23:16.450Z,14.00
2022-12-09T02:26:15.543Z,17.00
2022-12-09T02:29:22.941Z,15.23
2022-12-09T02:32:36.372Z,17.20
2022-12-09T02:35:28.643Z,14.97
2022-12-09T02:38:20.365Z,16.47
2022-12-09T02:41:11.253Z,15.20
2022-12-09T02:44:02.477Z,13.07
2022-12-09T02:46:50.615Z,16.13
2022-12-09T02:49:38.964Z,15.63
2022-12-09T02:52:29.033Z,14.60
2022-12-09T02:55:17.956Z,13.93
2022-12-09T02:58:05.320Z,15.53
2022-12-09T03:00:53.038Z,14.57
2022-12-09T03:03:40.281Z,15.90
2022-12-09T03:06:33.650Z,15.87
2022-12-09T03:09:25.024Z,13.80
2022-12-09T03:12:15.813Z,15.17
2022-12-09T03:15:05.314Z,14.00
2022-12-09T03:17:54.855Z,14.27
2022-12-09T03:20:44.083Z,17.00
2022-12-09T03:23:32.756Z,13.73
2022-12-09T03:26:21.554Z,14.03
2022-12-09T03:29:14.971Z,15.13
2022-12-09T03:32:02.420Z,15.33
2022-12-09T03:34:52.259Z,16.90
2022-12-09T03:37:41.584Z,17.97
2022-12-09T03:40:31.842Z,15.30
2022-12-09T03:43:23.986Z,16.77
2022-12-09T03:46:11.595Z,14.10
2022-12-09T03:48:59.202Z,14.70
2022-12-09T03:51:51.020Z,13.77
2022-12-09T03:54:43.982Z,16.13
2022-12-09T03:57:30.905Z,15.93
2022-12-09T04:00:19.539Z,17.77
2022-12-09T04:03:07.228Z,15.70
2022-12-09T04:05:54.725Z,16.53
2022-12-09T04:08:41.766Z,16.03
2022-12-09T04:11:28.591Z,18.13
2022-12-09T04:14:15.951Z,15.17
2022-12-09T04:17:05.090Z,14.37
2022-12-09T04:19:52.356Z,17.10
2022-12-09T04:22:39.300Z,17.23
2022-12-09T04:25:26.219Z,15.87
2022-12-09T04:28:12.849Z,18.67
2022-12-09T04:31:00.214Z,16.40
2022-12-09T04:33:48.921Z,19.13
2022-12-09T04:36:35.727Z,17.30
2022-12-09T04:39:22.167Z,15.83
2022-12-09T04:42:08.872Z,16.73
2022-12-09T04:44:55.363Z,14.17
2022-12-09T04:47:42.128Z,14.37
2022-12-09T04:50:30.315Z,17.90
2022-12-09T04:53:16.992Z,17.57
2022-12-09T04:56:05.496Z,16.60
2022-12-09T04:58:52.642Z,14.63
2022-12-09T05:01:39.379Z,18.03
2022-12-09T05:04:26.455Z,19.88
2022-12-09T05:07:14.939Z,18.57
2022-12-09T05:10:02.301Z,16.87
2022-12-09T05:12:49.232Z,15.50
2022-12-09T05:15:38.599Z,15.70
2022-12-09T05:18:25.798Z,15.90
2022-12-09T05:21:15.092Z,16.93
2022-12-09T05:24:05.011Z,18.50
2022-12-09T05:26:52.483Z,18.67
2022-12-09T05:29:39.079Z,17.67
2022-12-09T05:32:29.079Z,21.13
2022-12-09T05:35:16.031Z,18.77
2022-12-09T05:38:03.358Z,19.23
2022-12-09T05:40:52.038Z,20.13
2022-12-09T05:43:39.091Z,19.10
2022-12-09T05:46:26.179Z,19.27
2022-12-09T05:49:13.732Z,21.73
2022-12-09T05:52:00.445Z,19.40
2022-12-09T05:54:47.003Z,20.20
2022-12-09T05:57:36.685Z,19.47
2022-12-09T06:00:23.865Z,21.43
2022-12-09T06:03:10.549Z,21.97
2022-12-09T06:05:57.893Z,20.20
2022-12-09T06:08:47.258Z,17.27
2022-12-09T06:11:34.169Z,18.43
2022-12-09T06:14:22.521Z,19.13
2022-12-09T06:17:09.103Z,17.50
2022-12-09T06:19:56.049Z,19.33
2022-12-09T06:22:42.507Z,18.23
2022-12-09T06:25:29.702Z,17.90
2022-12-09T06:28:16.815Z,17.10
2022-12-09T06:31:05.112Z,17.27
2022-12-09T06:33:55.519Z,18.10
2022-12-09T06:36:43.558Z,16.63
2022-12-09T06:39:30.859Z,20.57
2022-12-09T06:42:17.944Z,17.57
2022-12-09T06:45:05.734Z,20.03
2022-12-09T06:47:55.071Z,18.67
2022-12-09T06:50:42.809Z,17.87
2022-12-09T06:53:29.500Z,19.70
2022-12-09T06:56:17.094Z,20.70
2022-12-09T06:59:08.537Z,19.07
2022-12-09T07:01:55.524Z,17.07
2022-12-09T07:04:44.322Z,15.90
2022-12-09T07:07:31.065Z,15.93
2022-12-09T07:10:18.385Z,16.37
2022-12-09T07:13:05.409Z,16.33
2022-12-09T07:15:52.296Z,14.63
2022-12-09T07:18:39.211Z,16.97
2022-12-09T07:21:28.373Z,19.97
2022-12-09T07:24:18.512Z,19.07
2022-12-09T07:27:09.688Z,19.67
2022-12-09T07:29:59.097Z,20.13
2022-12-09T07:32:45.809Z,19.03
2022-12-09T07:35:33.027Z,16.20
2022-12-09T07:38:21.786Z,17.30
2022-12-09T07:41:10.064Z,16.33
2022-12-09T07:43:57.400Z,16.37
2022-12-09T07:46:44.761Z,15.27
2022-12-09T07:49:31.785Z,15.50
2022-12-09T07:52:18.662Z,16.90
2022-12-09T07:55:08.179Z,18.90
2022-12-09T07:57:55.154Z,19.53
2022-12-09T08:00:42.868Z,18.80
2022-12-09T08:03:29.741Z,15.70
2022-12-09T08:06:19.214Z,19.33
2022-12-09T08:09:09.455Z,20.13
2022-12-09T08:11:57.687Z,23.77
2022-12-09T08:14:45.185Z,27.23
2022-12-09T08:17:31.839Z,26.33
2022-12-09T08:20:22.396Z,30.10
2022-12-09T08:23:13.004Z,22.67
2022-12-09T08:26:01.080Z,20.43
2022-12-09T08:28:50.183Z,20.30
2022-12-09T08:31:41.029Z,17.83
2022-12-09T08:34:29.287Z,18.63
2022-12-09T08:37:16.377Z,17.33
2022-12-09T08:40:03.533Z,21.27
2022-12-09T08:42:50.691Z,16.87
2022-12-09T08:45:40.810Z,19.43
2022-12-09T08:48:28.096Z,19.37
2022-12-09T08:51:15.203Z,20.00
2022-12-09T08:54:02.641Z,19.37
2022-12-09T08:56:52.945Z,20.37
2022-12-09T08:59:45.023Z,24.20
2022-12-09T09:02:33.803Z,20.67
2022-12-09T09:05:22.990Z,22.60
2022-12-09T09:08:10.383Z,19.93
2022-12-09T09:10:57.594Z,18.23
2022-12-09T09:13:46.960Z,19.63
2022-12-09T09:16:34.565Z,18.43
2022-12-09T09:19:25.689Z,17.80
2022-12-09T09:22:13.170Z,18.80
2022-12-09T09:25:00.240Z,23.17
2022-12-09T09:27:47.165Z,22.17
2022-12-09T09:30:34.739Z,18.53
2022-12-09T09:33:21.759Z,15.70
2022-12-09T09:36:14.116Z,17.87
2022-12-09T09:39:01.502Z,19.90
2022-12-09T09:41:53.722Z,18.27
2022-12-09T09:44:44.007Z,17.67
2022-12-09T09:47:38.560Z,17.43
2022-12-09T09:50:33.705Z,15.03
2022-12-09T09:53:26.829Z,20.83
2022-12-09T09:56:23.333Z,16.83
2022-12-09T09:59:20.624Z,16.60
2022-12-09T10:02:18.273Z,17.03
2022-12-09T10:05:14.485Z,16.63
2022-12-09T10:08:19.736Z,16.83
2022-12-09T10:11:18.643Z,14.27
2022-12-09T10:14:15.453Z,16.47
2022-12-09T10:17:14.638Z,16.30
2022-12-09T10:20:07.724Z,15.33
2022-12-09T10:23:00.056Z,15.10
2022-12-09T10:25:51.877Z,16.10
2022-12-09T10:28:45.069Z,16.93
2022-12-09T10:31:32.918Z,15.40
2022-12-09T10:34:20.290Z,18.10
2022-12-09T10:37:07.742Z,16.13
2022-12-09T10:40:00.903Z,14.03
2022-12-09T10:43:06.458Z,16.60
2022-12-09T10:49:05.075Z,15.63
2022-12-09T10:51:53.998Z,15.23
2022-12-09T10:54:44.909Z,16.77
2022-12-09T10:57:32.046Z,17.03
2022-12-09T11:00:24.679Z,14.97
2022-12-09T11:03:29.911Z,15.47
2022-12-09T11:06:25.934Z,14.20
2022-12-09T11:09:24.254Z,16.63
2022-12-09T11:12:20.208Z,14.73
2022-12-09T11:15:25.553Z,15.07
2022-12-09T11:18:20.174Z,14.60
2022-12-09T11:21:28.839Z,14.83
2022-12-09T11:24:23.167Z,11.63
2022-12-09T11:27:30.289Z,14.27
2022-12-09T11:30:18.906Z,11.50
2022-12-09T11:33:20.446Z,13.57
2022-12-09T11:36:19.185Z,13.57
2022-12-09T11:39:26.363Z,12.60
2022-12-09T11:42:19.694Z,14.97
2022-12-09T11:45:18.601Z,14.20
2022-12-09T11:48:32.905Z,13.33
2022-12-09T11:51:23.877Z,13.97
2022-12-09T11:54:16.256Z,14.27
2022-12-09T11:57:04.253Z,15.70
2022-12-09T11:59:56.460Z,14.27
2022-12-09T12:02:47.674Z,15.13
2022-12-09T12:05:38.667Z,14.80
2022-12-09T12:08:31.400Z,13.17
2022-12-09T12:11:22.082Z,13.97
2022-12-09T12:14:17.865Z,12.23
2022-12-09T12:17:10.642Z,13.57
2022-12-09T12:19:57.731Z,16.47
2022-12-09T12:23:07.723Z,15.93
2022-12-09T12:26:04.050Z,14.07
2022-12-09T12:29:21.671Z,14.20
2022-12-09T12:32:22.639Z,15.07
2022-12-09T12:35:21.492Z,15.20
2022-12-09T12:38:20.833Z,15.27
2022-12-09T12:41:15.642Z,14.63
2022-12-09T12:44:32.018Z,14.07
2022-12-09T12:47:24.784Z,15.23
2022-12-09T12:50:34.329Z,12.83
2022-12-09T12:53:32.834Z,14.00
2022-12-09T12:56:26.473Z,15.53
2022-12-09T12:59:20.803Z,13.00
2022-12-09T13:02:20.962Z,14.37
2022-12-09T13:05:19.458Z,13.53
2022-12-09T13:08:10.649Z,13.77
2022-12-09T13:11:00.572Z,14.47
2022-12-09T13:13:55.047Z,12.07
2022-12-09T13:16:44.424Z,12.30
2022-12-09T13:19:37.825Z,14.97
2022-12-09T13:22:44.916Z,16.43
2022-12-09T13:25:39.169Z,12.07
2022-12-09T13:28:31.738Z,13.00
2022-12-09T13:31:23.350Z,13.97
2022-12-09T13:34:21.638Z,12.07
2022-12-09T13:37:35.732Z,12.80
2022-12-09T13:40:43.528Z,12.43
2022-12-09T13:43:33.703Z,11.57
2022-12-09T13:46:24.747Z,12.33
2022-12-09T13:49:18.956Z,11.53
2022-12-09T13:52:05.637Z,12.67
2022-12-09T13:54:52.550Z,10.67
2022-12-09T13:57:49.006Z,10.67
2022-12-09T14:00:36.548Z,10.93
2022-12-09T14:03:33.354Z,12.73
2022-12-09T14:06:25.754Z,11.03
2022-12-09T14:09:25.709Z,10.37
2022-12-09T14:12:14.678Z,11.47
2022-12-09T14:15:03.326Z,10.70
2022-12-09T14:18:01.859Z,9.27
2022-12-09T14:21:23.349Z,10.13
2022-12-09T14:24:35.366Z,9.70
2022-12-09T14:27:23.304Z,7.63
2022-12-09T14:30:52.184Z,11.47
2022-12-09T14:33:42.161Z,11.60
2022-12-09T14:36:32.983Z,10.53
2022-12-09T14:39:25.854Z,12.17
2022-12-09T14:42:23.872Z,11.30
2022-12-09T14:45:25.609Z,12.20
2022-12-09T14:48:17.648Z,11.20
2022-12-09T14:51:10.786Z,10.83
2022-12-09T14:54:00.119Z,12.70
2022-12-09T14:56:49.714Z,12.33
2022-12-09T14:59:37.020Z,12.47
2022-12-09T15:02:25.739Z,14.80
2022-12-09T15:05:18.292Z,16.63
2022-12-09T15:08:05.494Z,18.47
2022-12-09T15:10:52.357Z,18.20
2022-12-09T15:13:41.777Z,13.17
2022-12-09T15:16:29.042Z,13.97
2022-12-09T15:19:51.102Z,14.23
2022-12-09T15:22:32.243Z,15.93
2022-12-09T15:25:19.829Z,17.60
2022-12-09T15:28:15.339Z,17.40
2022-12-09T15:31:04.087Z,19.60
2022-12-09T15:33:53.794Z,19.03
2022-12-09T15:36:44.195Z,20.00
2022-12-09T15:39:39.524Z,18.10
2022-12-09T15:42:29.805Z,22.87
2022-12-09T15:45:20.688Z,19.60
2022-12-09T15:48:13.046Z,17.77
2022-12-09T15:51:03.685Z,17.63
2022-12-09T15:53:55.967Z,20.63
2022-12-09T15:56:47.479Z,20.53
2022-12-09T15:59:37.183Z,20.40
2022-12-09T16:02:27.473Z,22.63
2022-12-09T16:05:14.333Z,20.80
2022-12-09T16:08:02.530Z,22.87
2022-12-09T16:10:51.349Z,20.37
2022-12-09T16:13:58.169Z,20.07
2022-12-09T16:16:48.559Z,23.70
2022-12-09T16:19:36.480Z,18.13
2022-12-09T16:22:26.554Z,22.27
2022-12-09T16:25:21.178Z,18.93
2022-12-09T16:28:08.125Z,20.53
2022-12-09T16:30:58.957Z,22.07
2022-12-09T16:33:49.206Z,20.13
2022-12-09T16:36:36.149Z,21.93
2022-12-09T16:39:43.629Z,21.87
2022-12-09T16:42:36.492Z,20.67
2022-12-09T16:45:32.903Z,26.03
2022-12-09T16:48:23.582Z,23.50
2022-12-09T16:51:13.954Z,25.27
2022-12-09T16:54:01.253Z,24.40
2022-12-09T16:56:47.677Z,28.80
2022-12-09T16:59:37.791Z,32.00
2022-12-09T17:02:33.910Z,25.43
2022-12-09T17:05:21.802Z,25.90
2022-12-09T17:08:08.679Z,25.60
2022-12-09T17:10:55.531Z,25.20
2022-12-09T17:13:42.062Z,23.30
2022-12-09T17:16:28.687Z,27.53
2022-12-09T17:19:15.641Z,25.23
2022-12-09T17:22:03.706Z,25.33
2022-12-09T17:24:50.823Z,24.73
2022-12-09T17:27:37.453Z,25.20
2022-12-09T17:30:23.838Z,28.17
2022-12-09T17:33:10.239Z,23.13
2022-12-09T17:35:57.571Z,25.17
2022-12-09T17:38:45.750Z,25.47
2022-12-09T17:41:32.245Z,25.77
2022-12-09T17:44:21.212Z,23.60
2022-12-09T17:47:07.993Z,21.93
2022-12-09T17:49:54.842Z,26.50
2022-12-09T17:52:42.274Z,23.53
2022-12-09T17:55:30.446Z,24.10
2022-12-09T17:58:17.388Z,28.20
2022-12-09T18:01:03.935Z,22.30
2022-12-09T18:04:02.643Z,24.70
2022-12-09T18:06:51.406Z,26.03
2022-12-09T18:09:37.933Z,25.63
2022-12-09T18:12:26.230Z,24.27
2022-12-09T18:15:13.476Z,26.27
2022-12-09T18:18:00.046Z,24.57
2022-12-09T18:20:46.623Z,22.53
2022-12-09T18:23:33.136Z,19.17
2022-12-09T18:26:22.583Z,18.47
2022-12-09T18:29:14.623Z,39.17
2022-12-09T18:32:01.507Z,37.67
2022-12-09T18:34:49.238Z,27.00
2022-12-09T18:37:35.860Z,20.80
2022-12-09T18:40:22.311Z,19.10
2022-12-09T18:43:09.053Z,16.97
2022-12-09T18:45:56.768Z,18.73
2022-12-09T18:48:43.801Z,18.67
2022-12-09T18:51:31.305Z,17.57
2022-12-09T18:54:20.153Z,21.33
2022-12-09T18:57:07.038Z,106.37
2022-12-09T18:59:53.782Z,79.87
2022-12-09T19:02:41.632Z,96.67
2022-12-09T19:05:28.359Z,86.40
2022-12-09T19:08:15.915Z,79.67
2022-12-09T19:11:02.246Z,36.43
2022-12-09T19:13:48.719Z,45.93
2022-12-09T19:16:35.818Z,62.60
2022-12-09T19:19:25.947Z,73.80
2022-12-09T19:22:12.358Z,84.47
2022-12-09T19:24:58.767Z,66.30
2022-12-09T19:27:46.985Z,42.17
2022-12-09T19:30:33.733Z,45.73
2022-12-09T19:33:20.108Z,36.63
2022-12-09T19:36:08.866Z,23.60
2022-12-09T19:38:55.690Z,36.20
2022-12-09T19:41:43.928Z,39.30
2022-12-09T19:44:59.739Z,26.10
2022-12-09T19:47:37.426Z,41.70
2022-12-09T19:50:23.872Z,47.57
2022-12-09T19:53:12.174Z,29.83
2022-12-09T19:56:01.709Z,14.13
2022-12-09T19:58:48.690Z,40.37
2022-12-09T20:01:37.086Z,15.87
2022-12-09T20:07:32.279Z,31.50
2022-12-09T20:10:20.049Z,33.07
2022-12-09T20:13:06.621Z,29.13
2022-12-09T20:15:53.399Z,16.63
2022-12-09T20:18:40.530Z,20.37
2022-12-09T20:21:27.630Z,37.07
2022-12-09T20:24:14.341Z,19.67
2022-12-09T20:27:02.297Z,25.93
2022-12-09T20:29:49.249Z,17.33
2022-12-09T20:32:35.769Z,30.03
2022-12-09T20:35:22.487Z,27.57
2022-12-09T20:38:09.210Z,15.37
2022-12-09T20:40:56.113Z,16.70
2022-12-09T20:43:46.265Z,14.23
2022-12-09T20:46:33.730Z,10.33
2022-12-09T20:49:26.169Z,10.07
2022-12-09T20:52:13.104Z,11.67
2022-12-09T20:54:59.735Z,15.03
2022-12-09T20:57:46.276Z,12.87
2022-12-09T21:00:33.999Z,18.60
2022-12-09T21:03:21.092Z,10.87
2022-12-09T21:06:08.546Z,13.37
2022-12-09T21:08:54.862Z,11.17
2022-12-09T21:11:41.545Z,12.53
2022-12-09T21:14:32.982Z,9.53
2022-12-09T21:17:21.213Z,9.83
2022-12-09T21:20:09.269Z,9.87
2022-12-09T21:23:31.933Z,10.40
2022-12-09T21:26:05.576Z,9.70
2022-12-09T21:28:52.948Z,8.60
2022-12-09T21:31:41.822Z,9.37
2022-12-09T21:34:30.227Z,11.37
2022-12-09T21:37:16.859Z,8.43
2022-12-09T21:40:03.466Z,9.27
2022-12-09T21:42:50.194Z,9.70
2022-12-09T21:45:36.617Z,11.33
2022-12-09T21:48:23.479Z,8.90
2022-12-09T21:51:13.133Z,8.63
2022-12-09T21:53:59.739Z,9.77
2022-12-09T21:56:46.179Z,7.10
2022-12-09T21:59:32.795Z,10.33
2022-12-09T22:02:19.519Z,11.63
2022-12-09T22:05:06.772Z,8.90
2022-12-09T22:07:54.545Z,11.63
2022-12-09T22:10:41.479Z,10.30
2022-12-09T22:13:29.293Z,11.33
2022-12-09T22:16:18.794Z,11.93
2022-12-09T22:19:08.180Z,11.30
2022-12-09T22:21:54.941Z,13.77
2022-12-09T22:24:42.709Z,11.50
2022-12-09T22:27:29.530Z,12.73
2022-12-09T22:30:16.234Z,11.83
2022-12-09T22:33:02.617Z,13.80
2022-12-09T22:35:49.115Z,13.13
2022-12-09T22:38:36.893Z,13.23
2022-12-09T22:41:27.683Z,12.30
2022-12-09T22:44:16.301Z,11.27
2022-12-09T22:47:02.764Z,14.27
2022-12-09T22:49:49.407Z,11.90
2022-12-09T22:52:36.068Z,12.70
2022-12-09T22:55:23.027Z,12.77
2022-12-09T22:58:11.022Z,16.47
2022-12-09T23:00:58.086Z,14.63
2022-12-09T23:03:45.321Z,14.43
2022-12-09T23:06:31.874Z,17.13
2022-12-09T23:09:21.678Z,13.07
2022-12-09T23:12:09.009Z,15.60
2022-12-09T23:14:57.032Z,13.37
2022-12-09T23:17:43.731Z,14.60
2022-12-09T23:20:30.462Z,14.80
2022-12-09T23:23:17.059Z,16.73
2022-12-09T23:26:05.648Z,15.40
2022-12-09T23:28:53.819Z,14.83
2022-12-09T23:31:41.902Z,15.23
2022-12-09T23:34:28.532Z,17.00
2022-12-09T23:37:15.319Z,16.87
2022-12-09T23:40:02.127Z,17.30
2022-12-09T23:42:48.519Z,15.33
2022-12-09T23:45:34.958Z,20.20
2022-12-09T23:48:22.923Z,15.40
2022-12-09T23:51:13.714Z,16.07
2022-12-09T23:54:02.432Z,14.90
2022-12-09T23:56:50.713Z,20.83
2022-12-09T23:59:37.503Z,17.57
